Time;durP1;ratioP1;P1;durP2;ratioP2;P2;SDS_P1;SDS_P2;PMS_P1;PMS_P2;Temp;Humidity;BMP_temperature;BMP_pressure;BME280_temperature;BME280_humidity;BME280_pressure;Samples;Min_cycle;Max_cycle;Signal;HPM_P1;HPM_P2
2023/07/02 00:50:55;;;;;;;21.88;8.60;;;17.30;99.90;;;;;;5165974;27;20389;-71
2023/07/02 00:53:21;;;;;;;27.73;8.80;;;17.50;99.90;;;;;;5150302;27;20038;-72
2023/07/02 00:55:47;;;;;;;25.67;9.15;;;17.50;99.90;;;;;;5149890;27;20022;-72
2023/07/02 00:58:15;;;;;;;27.75;9.15;;;17.50;99.90;;;;;;5150162;27;20034;-72
2023/07/02 01:00:42;;;;;;;30.92;9.63;;;17.50;99.90;;;;;;5149877;27;20015;-72
2023/07/02 01:03:07;;;;;;;27.05;8.65;;;17.40;99.90;;;;;;5141876;27;20019;-73
2023/07/02 01:05:35;;;;;;;25.25;8.57;;;17.40;99.90;;;;;;5145111;27;20048;-72
2023/07/02 01:08:05;;;;;;;24.73;8.80;;;17.40;99.90;;;;;;5150195;27;20030;-72
2023/07/02 01:10:32;;;;;;;31.35;9.57;;;17.40;99.90;;;;;;5149481;27;20046;-72
2023/07/02 01:13:02;;;;;;;23.65;8.50;;;17.40;99.90;;;;;;5146513;27;20512;-72
2023/07/02 01:15:27;;;;;;;19.73;7.82;;;17.40;99.90;;;;;;5149661;27;20076;-72
2023/07/02 01:17:54;;;;;;;24.23;8.25;;;17.40;99.90;;;;;;5150109;27;20015;-72
2023/07/02 01:20:20;;;;;;;25.50;9.10;;;17.30;99.90;;;;;;5149841;27;20030;-72
2023/07/02 01:22:51;;;;;;;23.50;8.48;;;17.30;99.90;;;;;;5149583;27;20019;-71
2023/07/02 01:25:17;;;;;;;24.38;8.38;;;17.30;99.90;;;;;;5149938;27;20015;-72
2023/07/02 01:27:43;;;;;;;25.33;8.98;;;17.30;99.90;;;;;;5148851;27;20022;-72
2023/07/02 01:30:10;;;;;;;26.95;8.68;;;17.30;99.90;;;;;;5144717;27;20110;-71
2023/07/02 01:32:35;;;;;;;28.90;8.52;;;17.30;99.90;;;;;;5136320;27;20019;-71
2023/07/02 01:35:02;;;;;;;26.98;9.00;;;17.20;99.90;;;;;;5144194;27;20475;-72
2023/07/02 01:37:28;;;;;;;29.40;8.85;;;17.20;99.90;;;;;;5149356;27;20031;-72
2023/07/02 01:39:53;;;;;;;23.20;8.32;;;17.20;99.90;;;;;;5148485;27;20098;-72
2023/07/02 01:42:20;;;;;;;27.38;9.50;;;17.20;99.90;;;;;;5132909;27;20015;-72
2023/07/02 01:44:49;;;;;;;26.15;9.40;;;17.10;99.90;;;;;;5146468;27;20015;-72
2023/07/02 01:47:15;;;;;;;27.27;8.80;;;17.10;99.90;;;;;;5147526;27;20015;-72
2023/07/02 01:49:41;;;;;;;24.08;8.85;;;17.10;99.90;;;;;;5138990;27;20057;-71
2023/07/02 01:52:07;;;;;;;27.77;9.38;;;17.10;99.90;;;;;;5115840;27;20395;-72
2023/07/02 01:54:34;;;;;;;29.63;9.05;;;17.10;99.90;;;;;;5115857;27;20026;-71
2023/07/02 01:57:00;;;;;;;29.92;9.10;;;17.00;99.90;;;;;;5130334;27;20011;-72
2023/07/02 01:59:25;;;;;;;32.20;9.48;;;17.00;99.90;;;;;;5118074;27;20016;-72
2023/07/02 02:01:51;;;;;;;28.25;8.77;;;17.00;99.90;;;;;;5103655;27;20089;-72
2023/07/02 02:04:17;;;;;;;32.45;10.00;;;17.00;99.90;;;;;;5133824;27;20435;-72
2023/07/02 02:06:43;;;;;;;29.40;9.32;;;17.00;99.90;;;;;;5129870;27;20031;-72
2023/07/02 02:09:09;;;;;;;25.90;9.27;;;16.90;99.90;;;;;;5133510;27;20375;-72
2023/07/02 02:11:42;;;;;;;29.38;9.45;;;16.90;99.90;;;;;;5114817;27;20030;-72
2023/07/02 02:14:08;;;;;;;33.75;9.77;;;16.90;99.90;;;;;;5124866;27;20424;-72
2023/07/02 02:16:34;;;;;;;28.70;9.70;;;16.90;99.90;;;;;;5129829;27;20067;-72
2023/07/02 02:19:00;;;;;;;23.35;9.35;;;16.80;99.90;;;;;;5133221;27;20030;-72
2023/07/02 02:21:26;;;;;;;26.52;10.00;;;16.80;99.90;;;;;;5133171;27;20027;-72
2023/07/02 02:23:52;;;;;;;30.05;10.15;;;16.80;99.90;;;;;;5114796;27;20019;-72
2023/07/02 02:26:17;;;;;;;28.05;8.85;;;16.80;99.90;;;;;;5132699;27;20313;-72
2023/07/02 02:28:43;;;;;;;33.40;9.23;;;16.80;99.90;;;;;;5133396;27;20019;-72
2023/07/02 02:31:09;;;;;;;34.13;9.88;;;16.80;99.90;;;;;;5132383;27;20023;-72
2023/07/02 02:33:35;;;;;;;30.60;9.85;;;16.70;99.90;;;;;;5133099;27;20026;-72
2023/07/02 02:36:01;;;;;;;30.65;9.30;;;16.70;99.90;;;;;;5132964;27;20014;-72
2023/07/02 02:38:27;;;;;;;33.95;10.20;;;16.70;99.90;;;;;;5126281;27;20312;-72
2023/07/02 02:40:52;;;;;;;35.72;9.90;;;16.70;99.90;;;;;;5126486;27;20052;-72
2023/07/02 02:43:18;;;;;;;34.97;10.13;;;16.60;99.90;;;;;;5121161;27;20045;-72
2023/07/02 02:45:43;;;;;;;31.52;9.68;;;16.70;99.90;;;;;;5132763;27;20050;-72
2023/07/02 02:48:09;;;;;;;30.77;9.95;;;16.60;99.90;;;;;;5132719;27;20102;-72
2023/07/02 02:50:35;;;;;;;32.20;9.75;;;16.60;99.90;;;;;;5132528;27;20046;-72
2023/07/02 02:53:01;;;;;;;29.40;9.70;;;16.60;99.90;;;;;;5132801;27;20108;-72
2023/07/02 02:55:27;;;;;;;33.25;10.05;;;16.60;99.90;;;;;;5126486;27;20115;-72
2023/07/02 02:57:53;;;;;;;32.80;9.48;;;16.60;99.90;;;;;;5104701;27;20023;-72
2023/07/02 03:00:19;;;;;;;30.08;9.73;;;16.60;99.90;;;;;;5132514;27;20048;-72
2023/07/02 03:02:44;;;;;;;27.02;9.52;;;16.60;99.90;;;;;;5106790;27;20467;-72
2023/07/02 03:05:10;;;;;;;34.05;9.40;;;16.50;99.90;;;;;;5132432;27;20425;-72
2023/07/02 03:07:35;;;;;;;31.00;9.30;;;16.50;99.90;;;;;;5132302;27;20012;-72
2023/07/02 03:10:01;;;;;;;36.53;9.75;;;16.50;99.90;;;;;;5132075;27;20027;-72
2023/07/02 03:12:27;;;;;;;29.42;9.43;;;16.50;99.90;;;;;;5123991;27;20051;-72
2023/07/02 03:14:54;;;;;;;32.70;9.55;;;16.40;99.90;;;;;;5125206;27;20359;-72
2023/07/02 03:17:22;;;;;;;37.80;9.95;;;16.40;99.90;;;;;;5130585;27;20018;-72
2023/07/02 03:19:48;;;;;;;33.67;9.85;;;16.40;99.90;;;;;;5130935;27;20106;-72
2023/07/02 03:22:14;;;;;;;29.75;9.13;;;16.40;99.90;;;;;;5131991;27;20133;-72
2023/07/02 03:24:39;;;;;;;31.15;9.02;;;16.30;99.90;;;;;;5131216;27;20022;-72
2023/07/02 03:27:05;;;;;;;32.53;9.20;;;16.30;99.90;;;;;;5132337;27;20026;-72
2023/07/02 03:29:33;;;;;;;28.67;8.80;;;16.30;99.90;;;;;;5119183;27;20475;-72
2023/07/02 03:31:58;;;;;;;27.50;8.70;;;16.30;99.90;;;;;;5132169;27;20015;-72
2023/07/02 03:34:24;;;;;;;28.15;8.35;;;16.30;99.90;;;;;;5132087;27;20144;-72
2023/07/02 03:36:50;;;;;;;27.38;8.20;;;16.30;99.90;;;;;;5132044;27;20023;-72
2023/07/02 03:39:17;;;;;;;27.73;8.52;;;16.30;99.90;;;;;;5123318;27;20019;-72
2023/07/02 03:41:44;;;;;;;29.65;8.77;;;16.30;99.90;;;;;;5126291;27;20030;-72
2023/07/02 03:44:10;;;;;;;25.75;8.50;;;16.30;99.90;;;;;;5131687;27;20011;-72
2023/07/02 03:46:35;;;;;;;32.58;9.10;;;16.30;99.90;;;;;;5131267;27;20379;-72
2023/07/02 03:49:05;;;;;;;27.75;8.40;;;16.30;99.90;;;;;;5130959;27;20043;-72
2023/07/02 03:51:31;;;;;;;27.05;8.25;;;16.30;99.90;;;;;;5117697;27;20047;-72
2023/07/02 03:53:58;;;;;;;29.80;8.70;;;16.30;99.90;;;;;;5130393;27;20033;-72
2023/07/02 03:56:24;;;;;;;25.45;8.30;;;16.30;99.90;;;;;;5131662;27;20047;-72
2023/07/02 03:58:50;;;;;;;25.42;8.43;;;16.30;99.90;;;;;;5118878;27;20061;-72
2023/07/02 04:01:15;;;;;;;25.27;8.27;;;16.20;99.90;;;;;;5131556;27;20463;-72
2023/07/02 04:03:49;;;;;;;23.35;7.65;;;16.20;99.90;;;;;;5121103;27;20022;-72
2023/07/02 04:06:14;;;;;;;24.60;7.70;;;16.20;99.90;;;;;;5131778;27;20019;-72
2023/07/02 04:08:40;;;;;;;28.17;7.63;;;16.20;99.90;;;;;;5123814;27;20033;-72
2023/07/02 04:11:05;;;;;;;31.95;8.52;;;16.20;99.90;;;;;;5125525;27;20437;-72
2023/07/02 04:13:31;;;;;;;26.83;8.25;;;16.20;99.90;;;;;;5126201;27;20023;-72
2023/07/02 04:15:57;;;;;;;26.30;8.63;;;16.20;99.90;;;;;;5126936;27;20077;-72
2023/07/02 04:18:22;;;;;;;21.27;7.75;;;16.30;99.90;;;;;;5131633;27;20544;-72
2023/07/02 04:20:48;;;;;;;24.58;7.65;;;16.30;99.90;;;;;;5112728;27;20390;-72
2023/07/02 04:23:14;;;;;;;23.38;7.07;;;16.30;99.90;;;;;;5131608;27;20456;-72
2023/07/02 04:25:39;;;;;;;26.10;7.57;;;16.30;99.90;;;;;;5130854;27;20458;-72
2023/07/02 04:28:05;;;;;;;25.58;7.90;;;16.30;99.90;;;;;;5117903;28;20019;-72
2023/07/02 04:30:30;;;;;;;24.90;8.40;;;16.30;99.90;;;;;;5131088;27;20027;-72
2023/07/02 04:32:56;;;;;;;20.42;7.47;;;16.30;99.90;;;;;;5127925;27;20393;-72
2023/07/02 04:35:21;;;;;;;26.83;8.02;;;16.30;99.90;;;;;;5121184;27;20486;-72
2023/07/02 04:37:47;;;;;;;26.42;7.80;;;16.20;99.90;;;;;;5130606;28;20030;-72
2023/07/02 04:40:14;;;;;;;26.20;7.82;;;16.20;99.90;;;;;;5130783;28;20754;-72
2023/07/02 04:42:46;;;;;;;27.35;8.35;;;16.30;99.90;;;;;;5130507;28;20023;-72
2023/07/02 04:45:14;;;;;;;25.27;8.02;;;16.20;99.90;;;;;;5131339;28;20049;-72
2023/07/02 04:47:39;;;;;;;24.60;8.18;;;16.30;99.90;;;;;;5123553;28;20020;-72
2023/07/02 04:50:05;;;;;;;24.50;8.38;;;16.30;99.90;;;;;;5130207;28;20061;-72
2023/07/02 04:52:31;;;;;;;24.90;8.02;;;16.30;99.90;;;;;;5130893;28;20566;-72
2023/07/02 04:54:57;;;;;;;24.98;7.22;;;16.30;99.90;;;;;;5130525;28;20027;-72
2023/07/02 04:57:22;;;;;;;27.08;7.03;;;16.30;99.90;;;;;;5129948;28;20023;-72
2023/07/02 04:59:49;;;;;;;24.33;7.15;;;16.30;99.90;;;;;;5130713;28;20038;-72
2023/07/02 05:02:14;;;;;;;20.02;6.78;;;16.30;99.90;;;;;;5130369;28;20015;-72
2023/07/02 05:04:40;;;;;;;24.92;7.60;;;16.30;99.90;;;;;;5130842;28;20565;-72
2023/07/02 05:07:06;;;;;;;25.17;6.78;;;16.30;99.90;;;;;;5129811;28;20023;-72
2023/07/02 05:09:31;;;;;;;24.88;6.97;;;16.30;99.90;;;;;;5130692;28;20030;-72
2023/07/02 05:11:58;;;;;;;26.52;7.55;;;16.30;99.90;;;;;;5130383;28;20016;-72
2023/07/02 05:14:23;;;;;;;18.67;6.95;;;16.30;99.90;;;;;;5120923;28;20478;-72
2023/07/02 05:16:49;;;;;;;26.63;7.22;;;16.30;99.90;;;;;;5130609;28;20026;-72
2023/07/02 05:19:15;;;;;;;27.00;7.07;;;16.40;99.90;;;;;;5130507;28;20045;-72
2023/07/02 05:21:41;;;;;;;22.80;6.90;;;16.30;99.90;;;;;;5130619;28;20020;-72
2023/07/02 05:24:08;;;;;;;26.42;7.53;;;16.40;99.90;;;;;;5109948;28;20016;-72
2023/07/02 05:26:34;;;;;;;22.85;7.00;;;16.40;99.90;;;;;;5120465;27;20058;-72
2023/07/02 05:29:00;;;;;;;25.23;7.18;;;16.40;99.90;;;;;;5134545;27;20019;-72
2023/07/02 05:31:26;;;;;;;23.02;7.50;;;16.40;99.90;;;;;;5131659;27;20026;-72
2023/07/02 05:33:51;;;;;;;24.42;7.50;;;16.50;99.90;;;;;;5133943;27;20030;-72
2023/07/02 05:36:17;;;;;;;21.98;7.05;;;16.50;99.90;;;;;;5132194;27;20424;-73
2023/07/02 05:38:43;;;;;;;19.23;7.18;;;16.50;99.90;;;;;;5134265;27;20031;-72
2023/07/02 05:41:08;;;;;;;24.52;6.78;;;16.50;99.90;;;;;;5134013;27;20026;-72
2023/07/02 05:43:34;;;;;;;25.88;6.88;;;16.50;99.90;;;;;;5134409;27;20023;-72
2023/07/02 05:46:02;;;;;;;23.73;6.80;;;16.50;99.90;;;;;;5134304;27;20447;-72
2023/07/02 05:48:28;;;;;;;22.75;7.25;;;16.50;99.90;;;;;;5122934;27;20031;-71
2023/07/02 05:50:54;;;;;;;23.83;6.97;;;16.50;99.90;;;;;;5127447;27;20054;-72
2023/07/02 05:53:20;;;;;;;20.90;7.10;;;16.50;99.90;;;;;;5133778;27;20068;-72
2023/07/02 05:55:46;;;;;;;23.92;7.03;;;16.60;99.90;;;;;;5133708;27;20045;-72
2023/07/02 05:58:12;;;;;;;24.50;7.25;;;16.60;99.90;;;;;;5123659;27;20034;-72
2023/07/02 06:00:41;;;;;;;22.15;7.00;;;16.60;99.90;;;;;;5129214;27;20020;-72
2023/07/02 06:03:07;;;;;;;22.58;7.57;;;16.60;99.90;;;;;;5111631;27;20100;-72
2023/07/02 06:05:32;;;;;;;19.33;6.53;;;16.60;99.90;;;;;;5117711;27;20085;-72
2023/07/02 06:07:58;;;;;;;23.70;7.32;;;16.60;99.90;;;;;;5127382;27;20083;-72
2023/07/02 06:10:23;;;;;;;28.08;6.47;;;16.70;99.90;;;;;;5128072;27;20027;-72
2023/07/02 06:12:49;;;;;;;20.50;6.70;;;16.70;99.90;;;;;;5132064;27;20021;-72
2023/07/02 06:15:15;;;;;;;27.88;6.97;;;16.70;99.90;;;;;;5133638;27;20380;-72
2023/07/02 06:17:40;;;;;;;19.27;6.38;;;16.70;99.90;;;;;;5108385;27;20049;-71
2023/07/02 06:20:07;;;;;;;21.48;6.75;;;16.70;99.90;;;;;;5133469;27;20031;-72
2023/07/02 06:22:33;;;;;;;22.23;6.57;;;16.70;99.90;;;;;;5114570;27;20031;-72
2023/07/02 06:24:58;;;;;;;26.42;7.47;;;16.70;99.90;;;;;;5129965;27;20020;-73
2023/07/02 06:27:24;;;;;;;22.65;6.75;;;16.70;99.90;;;;;;5127859;27;20042;-72
2023/07/02 06:29:51;;;;;;;23.90;7.18;;;16.70;99.90;;;;;;5133107;27;20372;-72
2023/07/02 06:32:17;;;;;;;22.70;6.82;;;16.80;99.90;;;;;;5112211;27;20012;-72
2023/07/02 06:34:42;;;;;;;22.23;6.72;;;16.80;99.90;;;;;;5132707;27;20016;-72
2023/07/02 06:37:08;;;;;;;27.05;7.18;;;16.80;99.90;;;;;;5105612;28;20023;-72
2023/07/02 06:39:33;;;;;;;19.25;6.85;;;16.90;99.90;;;;;;5127817;27;20053;-72
2023/07/02 06:41:59;;;;;;;24.48;6.60;;;17.00;99.90;;;;;;5132988;27;20076;-72
2023/07/02 06:44:25;;;;;;;21.30;6.65;;;17.00;99.90;;;;;;5132740;27;20030;-72
2023/07/02 06:46:50;;;;;;;19.30;6.70;;;17.00;99.90;;;;;;5114332;27;20098;-72
2023/07/02 06:49:16;;;;;;;23.02;7.25;;;17.00;99.90;;;;;;5114307;27;20118;-72
2023/07/02 06:51:41;;;;;;;18.92;6.50;;;17.10;99.90;;;;;;5129714;27;20080;-72
2023/07/02 06:54:07;;;;;;;24.02;6.78;;;17.10;99.90;;;;;;5132417;27;20015;-72
2023/07/02 06:56:34;;;;;;;20.92;6.93;;;17.20;99.90;;;;;;5128656;27;20076;-72
2023/07/02 06:59:00;;;;;;;18.38;7.25;;;17.20;99.90;;;;;;5132504;27;20049;-71
2023/07/02 07:01:25;;;;;;;17.77;6.03;;;17.20;99.90;;;;;;5132191;27;20076;-71
2023/07/02 07:03:51;;;;;;;15.88;6.07;;;17.30;99.90;;;;;;5130755;27;20019;-71
2023/07/02 07:06:17;;;;;;;20.73;6.18;;;17.40;99.90;;;;;;5112842;27;20026;-71
2023/07/02 07:08:42;;;;;;;21.38;6.50;;;17.40;99.90;;;;;;5127056;27;20367;-71
2023/07/02 07:11:08;;;;;;;18.33;6.65;;;17.50;99.90;;;;;;5132410;27;20031;-71
2023/07/02 07:13:34;;;;;;;18.73;6.68;;;17.50;99.90;;;;;;5132136;27;20369;-72
2023/07/02 07:15:59;;;;;;;20.55;6.75;;;17.50;99.90;;;;;;5132579;27;20074;-71
2023/07/02 07:18:25;;;;;;;26.63;7.35;;;17.60;99.90;;;;;;5128872;27;20075;-72
2023/07/02 07:20:52;;;;;;;19.90;6.82;;;17.70;99.90;;;;;;5127989;27;20023;-73
2023/07/02 07:23:18;;;;;;;24.33;6.60;;;17.70;99.90;;;;;;5112497;27;20455;-71
2023/07/02 07:25:44;;;;;;;16.20;6.22;;;17.70;99.90;;;;;;5131745;27;20480;-71
2023/07/02 07:28:15;;;;;;;23.95;6.32;;;17.80;99.90;;;;;;5132813;27;20019;-71
2023/07/02 07:30:43;;;;;;;19.10;6.18;;;17.80;99.90;;;;;;5132955;27;20035;-70
2023/07/02 07:33:10;;;;;;;20.60;6.80;;;17.90;99.90;;;;;;5118702;27;20147;-71
2023/07/02 07:35:36;;;;;;;18.92;6.50;;;18.00;99.90;;;;;;5132192;27;20126;-71
2023/07/02 07:38:02;;;;;;;21.35;6.50;;;18.10;99.90;;;;;;5110550;27;20030;-72
2023/07/02 07:40:27;;;;;;;21.23;6.57;;;18.20;99.90;;;;;;5130500;27;20111;-71
2023/07/02 07:42:53;;;;;;;14.13;6.07;;;18.20;99.90;;;;;;5127679;27;20130;-71
2023/07/02 07:45:19;;;;;;;21.15;6.57;;;18.40;99.90;;;;;;5129531;27;20070;-71
2023/07/02 07:47:44;;;;;;;18.85;6.07;;;18.40;99.90;;;;;;5131557;27;20027;-73
2023/07/02 07:50:10;;;;;;;17.27;6.00;;;18.50;99.90;;;;;;5129002;27;20066;-73
2023/07/02 07:52:40;;;;;;;14.68;5.68;;;18.70;99.90;;;;;;5131057;27;20027;-73
2023/07/02 07:55:06;;;;;;;17.50;5.72;;;18.70;99.90;;;;;;5131859;27;20030;-73
2023/07/02 07:57:32;;;;;;;14.63;5.15;;;18.80;99.90;;;;;;5131875;27;20019;-72
2023/07/02 07:59:58;;;;;;;14.07;5.00;;;18.80;99.90;;;;;;5131313;27;20042;-72
2023/07/02 08:02:23;;;;;;;14.98;5.50;;;18.90;99.90;;;;;;5131238;27;20024;-72
2023/07/02 08:04:49;;;;;;;20.48;5.75;;;18.90;99.90;;;;;;5131486;27;20031;-72
2023/07/02 08:07:15;;;;;;;17.98;5.72;;;19.00;99.90;;;;;;5131484;27;20048;-72
2023/07/02 08:09:41;;;;;;;16.10;5.57;;;19.00;99.90;;;;;;5124870;27;20054;-72
2023/07/02 08:12:07;;;;;;;20.38;5.70;;;19.20;99.90;;;;;;5131619;27;20083;-72
2023/07/02 08:14:35;;;;;;;15.50;6.07;;;19.20;99.90;;;;;;5131860;27;20026;-72
2023/07/02 08:17:00;;;;;;;19.13;5.47;;;19.20;99.90;;;;;;5131609;27;20081;-72
2023/07/02 08:19:26;;;;;;;14.27;4.57;;;19.20;99.90;;;;;;5113578;27;20437;-72
2023/07/02 08:21:52;;;;;;;17.38;5.40;;;19.30;99.90;;;;;;5131417;27;20026;-72
2023/07/02 08:24:17;;;;;;;13.50;5.00;;;19.30;99.90;;;;;;5131163;27;20106;-72
2023/07/02 08:26:44;;;;;;;19.83;5.13;;;19.40;99.90;;;;;;5131678;27;20019;-72
2023/07/02 08:29:10;;;;;;;15.27;5.32;;;19.50;99.90;;;;;;5099504;27;20016;-72
2023/07/02 08:31:36;;;;;;;16.23;5.70;;;19.60;99.90;;;;;;5131657;27;20079;-72
2023/07/02 08:34:02;;;;;;;15.27;4.97;;;19.70;99.90;;;;;;5122195;27;20015;-77
2023/07/02 08:36:28;;;;;;;20.60;5.65;;;19.80;99.90;;;;;;5132364;27;20016;-76
2023/07/02 08:38:53;;;;;;;20.08;5.82;;;19.80;99.50;;;;;;5133563;28;20038;-76
2023/07/02 08:41:21;;;;;;;21.50;6.22;;;19.90;99.40;;;;;;5133531;28;20591;-77
2023/07/02 08:43:48;;;;;;;17.92;6.25;;;20.00;99.90;;;;;;5132978;28;20031;-77
2023/07/02 08:46:16;;;;;;;16.33;5.40;;;20.10;99.90;;;;;;5119491;28;20023;-75
2023/07/02 08:48:42;;;;;;;18.30;6.13;;;20.20;99.90;;;;;;5132800;28;20142;-76
2023/07/02 08:51:07;;;;;;;18.83;6.35;;;20.30;99.90;;;;;;5128986;28;20079;-76
2023/07/02 08:53:33;;;;;;;17.67;5.63;;;20.40;99.90;;;;;;5131839;28;20023;-77
2023/07/02 08:56:01;;;;;;;14.95;5.22;;;20.50;99.90;;;;;;5132735;28;20053;-76
2023/07/02 08:58:27;;;;;;;13.40;4.90;;;20.60;99.90;;;;;;5132536;28;20096;-77
2023/07/02 09:01:12;;;;;;;14.65;4.93;;;20.70;99.40;;;;;;5132319;27;20007;-76
2023/07/02 09:03:39;;;;;;;14.30;5.45;;;20.90;98.90;;;;;;5137119;27;20447;-76
2023/07/02 09:06:06;;;;;;;16.75;5.32;;;21.10;98.50;;;;;;5117818;27;20019;-77
2023/07/02 09:08:34;;;;;;;17.88;5.43;;;21.20;98.20;;;;;;5137003;27;20414;-76
2023/07/02 09:11:07;;;;;;;17.95;5.63;;;21.20;97.40;;;;;;5136766;27;20054;-76
2023/07/02 09:13:43;;;;;;;14.70;5.30;;;21.20;97.80;;;;;;5133859;27;20034;-76
2023/07/02 09:16:09;;;;;;;16.30;4.45;;;21.20;97.80;;;;;;5129441;27;20007;-76
2023/07/02 09:18:34;;;;;;;14.00;4.20;;;21.20;96.90;;;;;;5130196;27;20027;-76
2023/07/02 09:21:00;;;;;;;9.68;4.05;;;21.30;96.70;;;;;;5134291;27;20090;-75
2023/07/02 09:23:35;;;;;;;13.60;4.38;;;21.30;95.50;;;;;;5134200;27;20019;-75
2023/07/02 09:26:01;;;;;;;15.32;4.20;;;21.40;94.90;;;;;;5133006;27;20015;-73
2023/07/02 09:28:26;;;;;;;15.23;4.40;;;21.40;93.80;;;;;;5131731;27;20533;-73
2023/07/02 09:30:57;;;;;;;11.70;4.75;;;21.30;93.30;;;;;;5132703;27;20086;-72
2023/07/02 09:33:28;;;;;;;14.57;4.32;;;21.20;93.70;;;;;;5120425;27;20051;-73
2023/07/02 09:35:55;;;;;;;17.27;4.68;;;21.20;93.70;;;;;;5134060;27;20023;-73
2023/07/02 09:38:21;;;;;;;16.02;4.38;;;21.30;93.40;;;;;;5128718;27;20040;-73
2023/07/02 09:40:51;;;;;;;14.77;4.20;;;21.30;92.90;;;;;;5132905;27;20247;-73
2023/07/02 09:43:18;;;;;;;13.90;5.13;;;21.40;92.70;;;;;;5130089;27;20015;-73
2023/07/02 09:45:46;;;;;;;20.48;5.20;;;21.30;92.10;;;;;;5113492;27;20015;-73
2023/07/02 09:48:16;;;;;;;16.35;4.75;;;21.20;92.40;;;;;;5127477;27;20019;-73
2023/07/02 09:50:46;;;;;;;14.98;4.82;;;21.20;93.30;;;;;;5113973;27;20492;-74
2023/07/02 09:53:12;;;;;;;12.65;4.10;;;21.30;93.10;;;;;;5128468;27;20046;-73
2023/07/02 09:55:39;;;;;;;13.15;4.13;;;21.40;92.50;;;;;;5133534;27;20098;-73
2023/07/02 09:58:05;;;;;;;13.70;4.55;;;21.40;91.10;;;;;;5133273;27;20422;-73
2023/07/02 10:00:31;;;;;;;8.70;3.67;;;21.50;91.10;;;;;;5100717;27;20406;-74
2023/07/02 10:02:57;;;;;;;17.80;4.43;;;21.50;89.30;;;;;;5115479;27;20034;-73
2023/07/02 10:05:26;;;;;;;25.25;4.20;;;21.50;89.60;;;;;;5126915;27;20024;-74
2023/07/02 10:07:52;;;;;;;13.18;4.68;;;21.70;88.00;;;;;;5125533;27;20047;-73
2023/07/02 10:10:31;;;;;;;16.58;4.40;;;21.80;86.00;;;;;;5129978;27;20023;-74
2023/07/02 10:12:58;;;;;;;10.48;4.03;;;21.90;83.00;;;;;;5125184;27;20042;-74
2023/07/02 10:15:26;;;;;;;10.40;3.88;;;22.00;83.70;;;;;;5133412;27;20034;-74
2023/07/02 10:17:59;;;;;;;9.45;4.10;;;22.20;82.50;;;;;;5133391;27;20015;-74
2023/07/02 10:20:37;;;;;;;13.35;3.88;;;22.30;78.20;;;;;;5107837;27;20024;-74
2023/07/02 10:23:04;;;;;;;11.52;4.13;;;22.20;75.20;;;;;;5127733;27;20022;-74
2023/07/02 10:25:38;;;;;;;11.27;4.70;;;22.00;76.90;;;;;;5133289;27;20359;-74
2023/07/02 10:28:22;;;;;;;11.45;4.07;;;21.80;72.70;;;;;;5133150;27;20020;-71
2023/07/02 10:30:48;;;;;;;11.25;4.35;;;21.70;73.80;;;;;;5133100;27;20045;-73
2023/07/02 10:33:18;;;;;;;11.85;4.50;;;21.60;75.60;;;;;;5132763;27;20015;-74
2023/07/02 10:35:47;;;;;;;11.32;4.55;;;21.60;76.20;;;;;;5102673;28;20103;-74
2023/07/02 10:38:19;;;;;;;11.27;4.68;;;21.70;76.60;;;;;;5130976;27;20015;-74
2023/07/02 10:40:45;;;;;;;12.07;4.80;;;21.70;76.90;;;;;;5131889;27;20023;-73
2023/07/02 10:43:11;;;;;;;11.13;4.50;;;21.80;77.40;;;;;;5101732;27;20072;-72
2023/07/02 10:45:37;;;;;;;12.85;4.75;;;22.00;75.70;;;;;;5132984;27;20023;-73
2023/07/02 10:48:04;;;;;;;12.07;4.60;;;22.10;75.30;;;;;;5129094;27;20087;-73
2023/07/02 10:50:34;;;;;;;11.57;4.15;;;22.20;74.30;;;;;;5108892;28;20509;-73
2023/07/02 10:53:00;;;;;;;11.30;4.80;;;22.30;72.20;;;;;;5124973;27;20019;-73
2023/07/02 10:55:31;;;;;;;10.00;4.53;;;22.50;71.30;;;;;;5132350;27;20019;-73
2023/07/02 10:58:07;;;;;;;11.63;5.07;;;22.50;70.00;;;;;;5122806;27;20031;-73
2023/07/02 11:00:43;;;;;;;9.60;4.78;;;22.40;67.20;;;;;;5116708;27;20047;-73
2023/07/02 11:03:20;;;;;;;9.73;4.50;;;22.40;68.10;;;;;;5114021;27;20019;-73
2023/07/02 11:05:46;;;;;;;12.90;4.75;;;22.40;65.50;;;;;;5121401;27;20023;-73
2023/07/02 11:08:12;;;;;;;20.85;4.70;;;22.30;66.40;;;;;;5120586;27;20031;-74
2023/07/02 11:10:37;;;;;;;10.63;4.45;;;22.30;65.60;;;;;;5119786;27;20020;-73
2023/07/02 11:13:17;;;;;;;11.85;4.93;;;22.30;64.60;;;;;;5132001;27;20024;-74
2023/07/02 11:15:45;;;;;;;12.65;5.70;;;22.10;65.70;;;;;;5129205;27;20012;-73
2023/07/02 11:18:20;;;;;;;17.10;5.15;;;22.20;65.90;;;;;;5126614;27;20034;-73
2023/07/02 11:20:46;;;;;;;9.27;4.65;;;22.10;62.70;;;;;;5132005;27;20473;-72
2023/07/02 11:23:25;;;;;;;11.98;5.10;;;22.00;63.40;;;;;;5131106;27;20088;-73
2023/07/02 11:26:02;;;;;;;12.52;5.32;;;22.00;65.20;;;;;;5121193;27;20019;-73
2023/07/02 11:28:29;;;;;;;16.90;5.50;;;22.00;64.10;;;;;;5131331;27;20023;-74
2023/07/02 11:30:55;;;;;;;17.55;5.68;;;21.90;65.20;;;;;;5132043;27;20062;-73
2023/07/02 11:33:35;;;;;;;16.17;5.57;;;21.80;65.60;;;;;;5128011;27;20031;-73
2023/07/02 11:36:01;;;;;;;13.88;5.45;;;21.70;65.10;;;;;;5124470;27;20033;-73
2023/07/02 11:38:27;;;;;;;13.98;5.45;;;21.50;66.00;;;;;;5131819;27;20102;-78
2023/07/02 11:40:52;;;;;;;10.15;5.00;;;21.50;65.50;;;;;;5110320;27;20047;-73
2023/07/02 11:43:18;;;;;;;13.38;5.10;;;21.50;64.40;;;;;;5109450;28;20023;-73
2023/07/02 11:45:44;;;;;;;15.23;6.63;;;21.50;65.20;;;;;;5124485;27;20542;-74
2023/07/02 11:48:10;;;;;;;17.05;5.65;;;21.60;67.50;;;;;;5126730;27;20090;-74
2023/07/02 11:50:35;;;;;;;14.60;5.43;;;21.80;67.70;;;;;;5125759;27;20711;-73
2023/07/02 11:53:01;;;;;;;13.73;5.55;;;22.00;65.80;;;;;;5125003;27;20471;-73
2023/07/02 11:55:27;;;;;;;12.02;5.75;;;22.20;63.10;;;;;;5131663;27;20015;-73
2023/07/02 11:57:52;;;;;;;11.20;5.45;;;22.20;64.30;;;;;;5131435;27;20016;-74
2023/07/02 12:00:18;;;;;;;8.88;5.28;;;22.20;64.50;;;;;;5115980;27;20479;-74
2023/07/02 12:02:44;;;;;;;14.75;5.40;;;22.20;64.20;;;;;;5119808;27;20027;-74
2023/07/02 12:05:10;;;;;;;11.43;5.65;;;22.20;61.50;;;;;;5131512;27;20051;-74
2023/07/02 12:07:35;;;;;;;12.75;5.57;;;22.20;60.70;;;;;;5131595;27;20015;-74
2023/07/02 12:10:01;;;;;;;12.35;6.07;;;22.30;62.00;;;;;;5130045;27;20355;-74
2023/07/02 12:12:27;;;;;;;13.50;5.35;;;22.30;62.80;;;;;;5129896;27;20020;-74
2023/07/02 12:14:52;;;;;;;13.10;5.57;;;22.40;63.30;;;;;;5131722;27;20587;-74
2023/07/02 12:17:18;;;;;;;31.10;7.00;;;22.60;63.50;;;;;;5130986;27;20023;-74
2023/07/02 12:19:44;;;;;;;14.93;5.60;;;22.70;63.60;;;;;;5131306;27;20015;-74
2023/07/02 12:22:09;;;;;;;12.40;5.68;;;22.70;62.30;;;;;;5130697;27;20019;-74
2023/07/02 12:24:35;;;;;;;17.85;5.63;;;22.60;63.10;;;;;;5130716;27;20019;-74
2023/07/02 12:27:01;;;;;;;10.82;5.22;;;22.70;62.80;;;;;;5130945;27;20023;-74
2023/07/02 12:29:26;;;;;;;16.08;5.65;;;22.80;62.20;;;;;;5124968;27;20103;-73
2023/07/02 12:31:52;;;;;;;13.63;5.35;;;22.80;62.60;;;;;;5131823;27;20019;-79
2023/07/02 12:34:18;;;;;;;56.10;7.50;;;22.60;63.70;;;;;;5135259;27;20019;-79
2023/07/02 12:36:43;;;;;;;16.27;5.55;;;22.50;64.00;;;;;;5135779;27;20011;-77
2023/07/02 12:39:09;;;;;;;12.85;5.35;;;22.60;64.00;;;;;;5134327;27;20071;-78
2023/07/02 12:41:35;;;;;;;13.25;5.70;;;22.60;62.80;;;;;;5126712;28;20020;-78
2023/07/02 12:44:00;;;;;;;13.80;5.85;;;22.50;62.70;;;;;;5129249;28;20019;-77
2023/07/02 12:46:26;;;;;;;14.82;6.32;;;22.50;62.90;;;;;;5131629;28;20102;-78
2023/07/02 12:48:52;;;;;;;15.38;6.22;;;22.40;63.40;;;;;;5130099;28;20069;-77
2023/07/02 12:51:17;;;;;;;16.33;6.45;;;22.50;64.40;;;;;;5133869;28;20480;-77
2023/07/02 12:53:43;;;;;;;11.63;5.75;;;22.50;64.40;;;;;;5117466;28;20016;-78
2023/07/02 12:56:09;;;;;;;13.02;5.38;;;22.60;63.90;;;;;;5126738;28;20023;-78
2023/07/02 12:58:34;;;;;;;14.13;5.40;;;22.60;60.50;;;;;;5133689;28;20539;-78
2023/07/02 13:01:00;;;;;;;16.35;5.72;;;22.50;60.60;;;;;;5112928;28;20463;-77
2023/07/02 13:03:25;;;;;;;12.38;6.25;;;22.20;61.40;;;;;;5131812;28;20027;-79
2023/07/02 13:05:51;;;;;;;14.30;5.40;;;22.10;64.00;;;;;;5132462;28;20022;-78
2023/07/02 13:08:17;;;;;;;11.10;5.03;;;22.20;63.60;;;;;;5132545;28;20094;-79
2023/07/02 13:10:43;;;;;;;14.35;5.20;;;22.20;62.70;;;;;;5131311;28;20434;-76
2023/07/02 13:13:09;;;;;;;14.63;6.00;;;22.10;61.40;;;;;;5131913;28;20012;-78
2023/07/02 13:15:35;;;;;;;10.98;4.97;;;22.00;63.60;;;;;;5130752;28;20068;-74
2023/07/02 13:18:01;;;;;;;16.95;5.80;;;22.00;65.30;;;;;;5130133;28;20019;-74
2023/07/02 13:20:27;;;;;;;11.32;5.00;;;22.20;64.50;;;;;;5130444;28;20085;-75
2023/07/02 13:22:52;;;;;;;9.80;4.70;;;22.20;63.00;;;;;;5132171;28;20043;-74
2023/07/02 13:25:18;;;;;;;8.88;4.70;;;22.30;60.30;;;;;;5131548;28;20027;-75